Time;durP1;ratioP1;P1;durP2;ratioP2;P2;SDS_P1;SDS_P2;PMS_P1;PMS_P2;Temp;Humidity;BMP_temperature;BMP_pressure;BME280_temperature;BME280_humidity;BME280_pressure;Samples;Min_cycle;Max_cycle;Signal;HPM_P1;HPM_P2
2022/04/23 00:01:43;;;;;;;3.25;0.90;;;18.50;99.90;;;;;;5087021;28;20368;-83
2022/04/23 00:04:12;;;;;;;3.10;0.82;;;18.50;99.90;;;;;;5086678;28;20785;-83
2022/04/23 00:06:39;;;;;;;2.92;1.00;;;18.80;99.90;;;;;;5086840;28;20360;-83
2022/04/23 00:09:06;;;;;;;5.72;1.00;;;18.90;99.90;;;;;;5086776;28;20373;-82
2022/04/23 00:11:34;;;;;;;3.13;0.90;;;19.20;99.90;;;;;;5086826;28;20754;-85
2022/04/23 00:14:02;;;;;;;3.00;0.90;;;19.80;99.90;;;;;;5086733;28;20477;-85
2022/04/23 00:16:29;;;;;;;4.88;0.95;;;20.10;99.90;;;;;;5088404;28;20380;-84
2022/04/23 00:18:56;;;;;;;4.97;0.98;;;20.40;99.90;;;;;;5091794;28;20384;-84
2022/04/23 00:21:23;;;;;;;5.38;0.90;;;21.00;99.90;;;;;;5088556;28;20418;-83
2022/04/23 00:23:50;;;;;;;4.25;0.77;;;19.90;99.90;;;;;;5086960;28;20372;-85
2022/04/23 00:26:17;;;;;;;3.30;1.00;;;19.50;99.90;;;;;;5086866;28;20459;-84
2022/04/23 00:28:44;;;;;;;2.60;0.80;;;19.30;99.90;;;;;;5090117;28;20384;-84
2022/04/23 00:31:13;;;;;;;3.30;0.90;;;19.20;99.90;;;;;;5090441;28;20426;-85
2022/04/23 00:33:41;;;;;;;3.13;0.80;;;19.20;99.90;;;;;;5090454;28;20400;-83
2022/04/23 00:36:10;;;;;;;3.30;0.77;;;19.20;99.90;;;;;;5090633;28;20896;-84
2022/04/23 00:38:42;;;;;;;3.13;0.90;;;19.00;99.90;;;;;;5090802;28;20380;-85
2022/04/23 00:41:43;;;;;;;3.50;0.80;;;19.00;99.90;;;;;;5090495;28;20373;-83
2022/04/23 00:44:00;;;;;;;3.10;0.73;;;19.10;99.90;;;;;;5090313;28;20372;-84
2022/04/23 00:46:27;;;;;;;3.08;0.80;;;19.20;99.90;;;;;;5090375;28;20376;-85
2022/04/23 00:48:54;;;;;;;3.25;0.98;;;19.20;99.90;;;;;;5072403;28;20381;-84
2022/04/23 00:51:22;;;;;;;5.63;1.00;;;19.20;99.90;;;;;;5090293;28;20376;-83
2022/04/23 00:53:50;;;;;;;2.88;0.95;;;19.30;99.90;;;;;;5090234;28;20404;-83
2022/04/23 00:56:17;;;;;;;2.58;0.82;;;19.40;99.90;;;;;;5090401;28;20429;-84
2022/04/23 00:58:45;;;;;;;3.13;0.90;;;19.70;99.90;;;;;;5090409;28;20420;-84
2022/04/23 01:01:12;;;;;;;2.28;0.70;;;19.90;99.90;;;;;;5090288;28;20372;-84
2022/04/23 01:03:39;;;;;;;3.00;0.90;;;20.10;99.90;;;;;;5090282;28;20940;-83
2022/04/23 01:06:07;;;;;;;2.83;0.60;;;20.50;99.90;;;;;;5090087;28;20375;-84
2022/04/23 01:08:34;;;;;;;2.97;0.70;;;21.00;99.90;;;;;;5090156;28;20441;-82
2022/04/23 01:11:01;;;;;;;3.33;0.70;;;21.40;99.90;;;;;;5089919;28;20467;-87
2022/04/23 01:13:28;;;;;;;5.10;0.85;;;21.30;99.90;;;;;;5090061;28;20790;-85
2022/04/23 01:16:04;;;;;;;2.25;0.70;;;21.30;99.90;;;;;;5089870;28;20688;-85
2022/04/23 01:18:32;;;;;;;3.13;0.70;;;21.50;99.90;;;;;;5089957;28;20404;-86
2022/04/23 01:21:00;;;;;;;1.10;0.60;;;21.80;99.90;;;;;;5089778;28;20380;-83
2022/04/23 01:23:29;;;;;;;3.37;0.83;;;22.30;99.90;;;;;;5089639;28;20405;-87
2022/04/23 01:25:56;;;;;;;2.53;0.90;;;23.30;99.90;;;;;;5089409;28;20372;-83
2022/04/23 01:28:25;;;;;;;3.35;0.73;;;24.20;98.40;;;;;;5089591;28;20451;-83
2022/04/23 01:30:54;;;;;;;3.13;0.80;;;24.00;96.50;;;;;;5089355;28;20372;-83
2022/04/23 01:33:21;;;;;;;1.83;0.50;;;24.50;97.30;;;;;;5089227;28;20790;-84
2022/04/23 01:35:48;;;;;;;3.45;0.80;;;24.70;94.40;;;;;;5089859;28;20793;-84
2022/04/23 01:38:15;;;;;;;2.67;0.63;;;25.10;92.70;;;;;;5070576;28;20396;-82
2022/04/23 01:40:43;;;;;;;3.25;0.68;;;24.50;92.30;;;;;;5089995;28;20387;-83
2022/04/23 01:43:10;;;;;;;4.85;0.93;;;24.00;93.70;;;;;;5089313;28;20384;-82
2022/04/23 01:45:38;;;;;;;4.43;0.80;;;23.40;94.80;;;;;;5089121;28;20554;-85
2022/04/23 01:48:06;;;;;;;6.07;0.90;;;22.80;95.90;;;;;;5070933;28;20426;-83
2022/04/23 01:50:36;;;;;;;3.78;0.80;;;22.10;99.00;;;;;;5089192;28;20392;-84
2022/04/23 01:53:03;;;;;;;3.85;0.82;;;21.60;99.90;;;;;;5089237;28;20372;-84
2022/04/23 01:55:31;;;;;;;2.80;0.80;;;21.40;99.90;;;;;;5089276;28;20419;-84
2022/04/23 01:57:59;;;;;;;2.10;0.70;;;21.20;99.90;;;;;;5089058;28;20365;-85
2022/04/23 02:00:26;;;;;;;1.85;0.60;;;21.20;99.90;;;;;;5089153;28;20443;-85
2022/04/23 02:02:54;;;;;;;1.20;0.52;;;21.60;99.90;;;;;;5089141;28;20387;-84
2022/04/23 02:05:21;;;;;;;2.33;0.70;;;22.00;99.90;;;;;;5070994;28;20532;-84
2022/04/23 02:07:48;;;;;;;1.67;0.60;;;22.80;98.00;;;;;;5089534;28;20372;-85
2022/04/23 02:10:17;;;;;;;1.77;0.77;;;24.20;95.70;;;;;;5089585;28;20369;-85
2022/04/23 02:12:47;;;;;;;2.63;0.60;;;24.70;90.50;;;;;;5089893;28;20807;-84
2022/04/23 02:15:16;;;;;;;2.15;0.70;;;24.30;90.90;;;;;;5089588;28;20487;-85
2022/04/23 02:17:44;;;;;;;3.70;0.75;;;23.40;92.40;;;;;;5090666;28;20377;-86
2022/04/23 02:20:15;;;;;;;1.38;0.63;;;22.70;94.20;;;;;;5094335;28;20380;-85
2022/04/23 02:22:47;;;;;;;1.88;0.60;;;22.20;95.10;;;;;;5094716;28;20392;-85
2022/04/23 02:25:16;;;;;;;2.43;0.80;;;22.60;95.90;;;;;;5099490;28;20365;-85
2022/04/23 02:27:45;;;;;;;1.60;0.63;;;23.40;95.00;;;;;;5090989;28;20422;-85
2022/04/23 02:30:13;;;;;;;2.05;0.63;;;24.30;95.00;;;;;;5089201;28;20395;-85
2022/04/23 02:32:42;;;;;;;1.85;0.68;;;25.40;90.30;;;;;;5088928;28;20368;-85
2022/04/23 02:35:10;;;;;;;3.45;0.70;;;26.10;83.60;;;;;;5088866;28;20404;-84
2022/04/23 02:37:37;;;;;;;1.48;0.68;;;26.80;81.40;;;;;;5088747;28;20376;-85
2022/04/23 02:40:07;;;;;;;1.85;0.68;;;27.10;76.10;;;;;;5088645;28;21001;-84
2022/04/23 02:42:39;;;;;;;2.30;0.80;;;27.50;78.10;;;;;;5088360;28;20452;-85
2022/04/23 02:45:11;;;;;;;2.42;0.60;;;27.50;70.60;;;;;;5088564;28;20360;-85
2022/04/23 02:47:46;;;;;;;2.70;0.57;;;26.00;72.80;;;;;;5088531;28;20700;-85
2022/04/23 02:50:27;;;;;;;1.38;0.60;;;25.70;76.30;;;;;;5068947;28;20529;-85
2022/04/23 02:52:56;;;;;;;1.38;0.50;;;26.50;74.20;;;;;;5088125;28;20376;-84
2022/04/23 02:55:25;;;;;;;2.17;0.50;;;27.90;69.30;;;;;;5088192;28;20392;-86
2022/04/23 02:57:52;;;;;;;2.33;0.63;;;29.20;62.30;;;;;;5088215;28;20379;-84
2022/04/23 03:00:19;;;;;;;1.23;0.60;;;28.90;61.50;;;;;;5088154;28;20421;-86
2022/04/23 03:02:47;;;;;;;6.00;0.63;;;28.30;63.80;;;;;;5087894;28;20384;-86
2022/04/23 03:05:15;;;;;;;1.50;0.60;;;29.20;60.20;;;;;;5087921;28;20387;-86
2022/04/23 03:07:42;;;;;;;1.75;0.57;;;28.90;59.70;;;;;;5088086;28;20376;-83
2022/04/23 03:10:11;;;;;;;1.80;0.60;;;28.50;60.40;;;;;;5089369;28;20388;-86
2022/04/23 03:12:38;;;;;;;1.92;0.52;;;28.10;61.70;;;;;;5095007;28;20874;-86
2022/04/23 03:15:08;;;;;;;2.03;0.60;;;28.00;62.70;;;;;;5088034;28;20401;-87
2022/04/23 03:17:35;;;;;;;2.55;0.60;;;27.50;61.50;;;;;;5087782;28;20738;-86
2022/04/23 03:20:04;;;;;;;2.30;0.53;;;26.50;63.80;;;;;;5087537;28;20403;-88
2022/04/23 03:22:31;;;;;;;2.70;0.60;;;25.40;66.70;;;;;;5087638;28;20373;-86
2022/04/23 03:24:58;;;;;;;1.83;0.50;;;24.50;69.20;;;;;;5087307;28;20737;-85
2022/04/23 03:27:25;;;;;;;2.47;0.70;;;23.70;72.00;;;;;;5087558;28;20376;-84
2022/04/23 03:29:53;;;;;;;3.60;0.70;;;23.20;75.80;;;;;;5087387;28;20375;-86
2022/04/23 03:32:21;;;;;;;1.75;0.55;;;23.30;79.20;;;;;;5087302;28;20418;-85
2022/04/23 03:34:49;;;;;;;2.90;0.60;;;24.70;73.50;;;;;;5087027;28;20885;-87
2022/04/23 03:37:16;;;;;;;2.08;0.57;;;25.60;70.30;;;;;;5087214;28;20364;-85
2022/04/23 03:39:44;;;;;;;1.70;0.60;;;25.10;67.70;;;;;;5087241;28;20377;-86
2022/04/23 03:42:11;;;;;;;3.00;0.60;;;24.70;70.10;;;;;;5087149;28;20739;-85
2022/04/23 03:44:38;;;;;;;1.95;0.50;;;25.50;68.20;;;;;;5069200;28;20380;-85
2022/04/23 03:47:06;;;;;;;1.80;0.50;;;25.30;67.40;;;;;;5087084;28;20373;-85
2022/04/23 03:49:33;;;;;;;1.92;0.70;;;24.60;67.20;;;;;;5086956;28;20380;-85
2022/04/23 03:52:00;;;;;;;1.35;0.60;;;24.80;69.50;;;;;;5086919;28;20410;-84
2022/04/23 03:54:27;;;;;;;1.40;0.50;;;26.30;67.70;;;;;;5086937;28;20385;-86
2022/04/23 03:56:54;;;;;;;2.58;0.50;;;27.10;63.80;;;;;;5087018;28;20513;-86
2022/04/23 03:59:23;;;;;;;1.90;0.50;;;26.30;64.70;;;;;;5087017;28;20383;-87
2022/04/23 04:01:55;;;;;;;1.38;0.60;;;25.40;67.10;;;;;;5086698;28;20456;-83
2022/04/23 04:04:22;;;;;;;2.53;0.50;;;26.00;67.90;;;;;;5087151;28;20458;-87
2022/04/23 04:06:49;;;;;;;1.40;0.57;;;27.20;63.70;;;;;;5087184;28;20377;-83
2022/04/23 04:09:16;;;;;;;1.40;0.65;;;28.40;60.70;;;;;;5086950;28;20368;-85
2022/04/23 04:12:01;;;;;;;1.10;0.57;;;29.30;58.70;;;;;;5086768;28;20475;-85
2022/04/23 04:14:33;;;;;;;1.10;0.60;;;30.50;55.40;;;;;;5086800;28;20535;-86
2022/04/23 04:17:00;;;;;;;1.35;0.50;;;30.90;54.30;;;;;;5087024;28;20375;-85
2022/04/23 04:19:28;;;;;;;1.27;0.50;;;30.90;54.20;;;;;;5086710;28;20368;-86
2022/04/23 04:21:57;;;;;;;2.23;0.57;;;31.60;51.50;;;;;;5086788;28;20376;-86
2022/04/23 04:24:25;;;;;;;1.25;0.50;;;30.60;50.50;;;;;;5086716;28;20376;-86
2022/04/23 04:26:53;;;;;;;1.40;0.50;;;30.00;53.60;;;;;;5086787;28;20369;-85
2022/04/23 04:29:20;;;;;;;1.25;0.68;;;29.40;54.80;;;;;;5086813;28;20417;-85
2022/04/23 04:31:51;;;;;;;2.53;0.60;;;29.90;54.70;;;;;;5086424;28;20459;-86
2022/04/23 04:34:32;;;;;;;1.58;0.80;;;30.40;53.70;;;;;;5086287;28;20408;-85
2022/04/23 04:37:05;;;;;;;2.53;0.70;;;31.20;51.40;;;;;;5086659;28;20777;-86
2022/04/23 04:39:33;;;;;;;1.63;0.60;;;30.90;51.70;;;;;;5086572;28;20372;-86
2022/04/23 04:42:01;;;;;;;1.42;0.68;;;29.20;53.00;;;;;;5068264;28;20377;-87
2022/04/23 04:44:28;;;;;;;1.10;0.60;;;27.50;55.40;;;;;;5086380;28;20725;-86
2022/04/23 04:46:55;;;;;;;3.00;0.75;;;26.10;59.00;;;;;;5086306;28;20459;-85
2022/04/23 04:49:25;;;;;;;2.20;0.70;;;25.10;60.80;;;;;;5086412;28;20368;-88
2022/04/23 04:52:02;;;;;;;1.52;0.80;;;24.40;63.30;;;;;;5086248;28;20521;-86
2022/04/23 04:54:30;;;;;;;1.85;0.90;;;23.70;66.50;;;;;;5086317;28;20408;-87
2022/04/23 04:56:57;;;;;;;3.08;1.00;;;23.10;68.90;;;;;;5086382;28;20372;-88
2022/04/23 04:59:24;;;;;;;2.75;0.80;;;22.80;70.50;;;;;;5086307;28;20383;-85
2022/04/23 05:01:52;;;;;;;1.83;0.90;;;22.50;72.90;;;;;;5086170;28;20373;-86
2022/04/23 05:04:20;;;;;;;2.88;1.00;;;22.20;75.70;;;;;;5086260;28;20864;-86
2022/04/23 05:06:48;;;;;;;2.47;1.10;;;22.00;77.90;;;;;;5086359;28;20376;-85
2022/04/23 05:09:15;;;;;;;5.25;1.00;;;21.80;79.70;;;;;;5086214;28;20395;-88
2022/04/23 05:11:42;;;;;;;2.30;1.00;;;21.70;81.50;;;;;;5085974;28;20411;-85
2022/04/23 05:14:09;;;;;;;4.78;1.00;;;21.60;84.50;;;;;;5088143;28;20400;-87
2022/04/23 05:16:36;;;;;;;2.67;1.20;;;21.40;86.50;;;;;;5089935;28;20521;-86
2022/04/23 05:19:03;;;;;;;3.42;1.15;;;21.40;88.80;;;;;;5090043;28;20383;-87
2022/04/23 05:21:30;;;;;;;3.37;1.07;;;21.50;90.60;;;;;;5089830;28;20368;-86
2022/04/23 05:23:57;;;;;;;4.07;1.17;;;21.80;90.90;;;;;;5089817;28;20380;-86
2022/04/23 05:26:24;;;;;;;2.40;1.00;;;21.80;91.10;;;;;;5089671;28;20368;-85
2022/04/23 05:28:51;;;;;;;2.25;0.80;;;21.60;91.80;;;;;;5089849;28;20372;-86
2022/04/23 05:31:18;;;;;;;4.30;1.30;;;21.90;93.00;;;;;;5089458;28;20376;-85
2022/04/23 05:33:45;;;;;;;5.13;2.00;;;22.90;91.00;;;;;;5089570;28;20445;-85
2022/04/23 05:36:12;;;;;;;3.80;1.67;;;23.80;87.50;;;;;;5089498;28;20856;-85
2022/04/23 05:38:39;;;;;;;3.45;1.20;;;24.50;81.00;;;;;;5089592;28;20373;-86
2022/04/23 05:41:06;;;;;;;2.28;0.88;;;24.90;78.50;;;;;;5089514;28;20385;-85
2022/04/23 05:43:33;;;;;;;1.65;0.82;;;24.80;77.00;;;;;;5089567;28;20382;-85
2022/04/23 05:46:02;;;;;;;2.92;1.00;;;24.70;75.80;;;;;;5089524;28;20484;-86
2022/04/23 05:48:29;;;;;;;2.42;0.90;;;24.40;78.20;;;;;;5071190;28;20388;-85
2022/04/23 05:50:56;;;;;;;1.98;0.90;;;24.10;79.30;;;;;;5089687;28;20774;-85
2022/04/23 05:53:23;;;;;;;2.72;0.90;;;23.50;82.60;;;;;;5092460;28;20372;-86
2022/04/23 05:55:50;;;;;;;2.60;1.10;;;22.80;88.40;;;;;;5090439;28;20396;-86
2022/04/23 05:58:17;;;;;;;3.38;0.90;;;22.40;90.90;;;;;;5089063;28;20433;-85
2022/04/23 06:00:44;;;;;;;1.90;1.00;;;22.00;93.30;;;;;;5089205;28;20393;-85
2022/04/23 06:03:12;;;;;;;4.07;1.13;;;21.70;94.90;;;;;;5089339;28;20852;-86
2022/04/23 06:05:39;;;;;;;3.35;1.02;;;21.40;96.70;;;;;;5089336;28;20392;-86
2022/04/23 06:08:07;;;;;;;3.45;1.02;;;21.20;98.60;;;;;;5092337;28;20376;-86
2022/04/23 06:10:34;;;;;;;4.10;1.00;;;21.00;99.80;;;;;;5090119;28;20422;-85
2022/04/23 06:13:01;;;;;;;3.10;1.08;;;20.70;99.90;;;;;;5089175;28;20717;-86
2022/04/23 06:15:28;;;;;;;2.40;1.10;;;20.60;99.90;;;;;;5088771;28;20404;-86
2022/04/23 06:17:55;;;;;;;3.20;0.98;;;20.40;99.90;;;;;;5088700;28;20380;-87
2022/04/23 06:20:22;;;;;;;2.53;0.82;;;20.30;99.90;;;;;;5088796;28;20381;-86
2022/04/23 06:22:49;;;;;;;2.80;0.90;;;20.20;99.90;;;;;;5088667;28;20376;-86
2022/04/23 06:25:16;;;;;;;4.10;0.90;;;20.10;99.90;;;;;;5088511;28;20377;-87
2022/04/23 06:27:43;;;;;;;3.47;1.00;;;20.00;99.90;;;;;;5089423;28;20376;-85
2022/04/23 06:30:10;;;;;;;3.10;1.13;;;19.90;99.90;;;;;;5089877;28;20721;-86
2022/04/23 06:32:38;;;;;;;3.97;1.15;;;19.70;99.90;;;;;;5088491;28;20372;-84
2022/04/23 06:35:09;;;;;;;4.03;1.00;;;19.70;99.90;;;;;;5088237;28;20412;-85
2022/04/23 06:37:41;;;;;;;2.08;0.95;;;19.50;99.90;;;;;;5088311;28;20373;-86
2022/04/23 06:40:12;;;;;;;2.15;0.90;;;19.50;99.90;;;;;;5088377;28;20489;-85
2022/04/23 06:42:42;;;;;;;2.50;1.00;;;19.40;99.90;;;;;;5088277;28;20373;-84
2022/04/23 06:45:10;;;;;;;3.15;0.77;;;19.30;99.90;;;;;;5088388;28;20412;-85
2022/04/23 06:47:37;;;;;;;2.95;0.90;;;19.30;99.90;;;;;;5088212;28;20868;-84
2022/04/23 06:50:06;;;;;;;2.92;0.90;;;19.30;99.90;;;;;;5088227;28;20372;-86
2022/04/23 06:52:33;;;;;;;3.33;0.90;;;19.20;99.90;;;;;;5087944;28;20386;-86
2022/04/23 06:55:00;;;;;;;4.38;1.00;;;19.10;99.90;;;;;;5088113;28;20430;-85
2022/04/23 06:57:27;;;;;;;2.42;0.80;;;19.00;99.90;;;;;;5087868;28;20372;-85
2022/04/23 06:59:54;;;;;;;3.97;0.80;;;19.00;99.90;;;;;;5087877;28;20437;-85
2022/04/23 07:02:21;;;;;;;2.70;0.80;;;18.90;99.90;;;;;;5087712;28;20797;-87
2022/04/23 07:04:48;;;;;;;2.50;0.90;;;18.90;99.90;;;;;;5087847;28;20462;-85
2022/04/23 07:07:15;;;;;;;2.50;0.90;;;18.80;99.90;;;;;;5087834;28;20376;-84
2022/04/23 07:09:42;;;;;;;2.88;1.00;;;18.80;99.90;;;;;;5087658;28;20459;-84
2022/04/23 07:12:10;;;;;;;3.97;0.90;;;18.70;99.90;;;;;;5087668;28;20848;-86
2022/04/23 07:14:38;;;;;;;2.80;0.90;;;18.70;99.90;;;;;;5087500;28;20403;-84
2022/04/23 07:17:05;;;;;;;2.65;1.00;;;18.60;99.90;;;;;;5087882;28;20719;-86
2022/04/23 07:19:32;;;;;;;1.38;0.90;;;18.60;99.90;;;;;;5087379;28;20429;-85
2022/04/23 07:22:00;;;;;;;2.40;0.90;;;18.50;99.90;;;;;;5087502;28;20372;-86
2022/04/23 07:24:27;;;;;;;2.60;0.90;;;18.50;99.90;;;;;;5087534;28;20459;-86
2022/04/23 07:26:54;;;;;;;3.15;0.90;;;18.40;99.90;;;;;;5087587;28;20368;-86
2022/04/23 07:29:21;;;;;;;4.05;0.93;;;18.40;99.90;;;;;;5069055;28;20892;-84
2022/04/23 07:31:48;;;;;;;2.47;0.80;;;18.40;99.90;;;;;;5087260;28;20400;-85
2022/04/23 07:39:46;;;;;;;3.17;0.90;;;18.20;99.90;;;;;;5087442;28;20367;-86
2022/04/23 07:42:16;;;;;;;1.85;1.00;;;18.10;99.90;;;;;;5086915;28;20372;-85
2022/04/23 07:44:43;;;;;;;3.47;1.17;;;18.00;99.90;;;;;;5087092;28;20744;-85
2022/04/23 07:47:10;;;;;;;4.45;1.23;;;18.00;99.90;;;;;;5087074;28;20464;-85
2022/04/23 07:49:37;;;;;;;4.28;1.10;;;17.90;99.90;;;;;;5087181;28;20780;-85
2022/04/23 07:52:05;;;;;;;4.45;1.20;;;17.90;99.90;;;;;;5087137;28;20378;-83
2022/04/23 07:54:31;;;;;;;3.30;1.13;;;17.80;99.90;;;;;;5086805;28;20524;-83
2022/04/23 07:56:59;;;;;;;4.40;1.08;;;17.80;99.90;;;;;;5087128;28;20396;-84
2022/04/23 07:59:29;;;;;;;3.08;1.00;;;17.70;99.90;;;;;;5086747;28;20404;-84
2022/04/23 08:01:56;;;;;;;3.10;1.10;;;17.70;99.90;;;;;;5068964;28;20384;-85
2022/04/23 08:04:23;;;;;;;3.08;1.25;;;17.60;99.90;;;;;;5086664;28;20399;-83
2022/04/23 08:06:50;;;;;;;2.30;1.00;;;17.60;99.90;;;;;;5086742;28;20372;-84
2022/04/23 08:09:17;;;;;;;3.80;1.05;;;17.50;99.90;;;;;;5086790;28;20372;-85
2022/04/23 08:11:45;;;;;;;3.35;0.90;;;17.40;99.90;;;;;;5086622;28;20872;-85
2022/04/23 08:14:11;;;;;;;5.00;1.10;;;17.40;99.90;;;;;;5086914;28;20410;-85
2022/04/23 08:16:38;;;;;;;4.60;1.20;;;17.30;99.90;;;;;;5088916;28;20824;-84
2022/04/23 08:19:07;;;;;;;3.78;1.10;;;17.20;99.90;;;;;;5089251;28;20392;-84
2022/04/23 08:21:33;;;;;;;2.85;1.08;;;17.20;99.90;;;;;;5087531;28;20375;-83
2022/04/23 08:24:01;;;;;;;2.28;1.00;;;17.20;99.90;;;;;;5086694;28;20387;-83
2022/04/23 08:26:27;;;;;;;3.28;1.10;;;17.10;99.90;;;;;;5087066;28;20380;-83
2022/04/23 08:31:39;;;;;;;5.47;1.30;;;17.00;99.90;;;;;;5087007;28;20372;-86
2022/04/23 08:34:09;;;;;;;3.65;1.27;;;16.90;99.90;;;;;;5086325;28;20392;-84
2022/04/23 08:36:36;;;;;;;3.42;1.27;;;16.90;99.90;;;;;;5086755;28;20407;-84
2022/04/23 08:39:09;;;;;;;3.80;1.40;;;16.90;99.90;;;;;;5086639;28;20383;-84
2022/04/23 08:41:36;;;;;;;3.55;1.48;;;16.90;99.90;;;;;;5086797;28;20466;-87
2022/04/23 08:44:05;;;;;;;2.38;1.27;;;16.80;99.90;;;;;;5086401;28;20405;-85
2022/04/23 08:46:35;;;;;;;5.20;1.60;;;16.80;99.90;;;;;;5086488;28;20368;-85
2022/04/23 08:49:09;;;;;;;5.07;1.60;;;16.80;99.90;;;;;;5088813;28;20373;-85
2022/04/23 08:51:38;;;;;;;4.82;1.80;;;16.80;99.90;;;;;;5090549;28;20417;-85
2022/04/23 08:54:08;;;;;;;5.82;1.83;;;16.90;99.90;;;;;;5090547;28;20399;-85
2022/04/23 08:56:37;;;;;;;5.75;2.70;;;17.00;99.90;;;;;;5091025;28;20391;-86
2022/04/23 08:59:06;;;;;;;7.10;3.08;;;17.10;99.90;;;;;;5096303;28;20383;-84
2022/04/23 09:01:35;;;;;;;6.77;3.00;;;17.10;99.90;;;;;;5093506;28;20438;-84
2022/04/23 09:04:03;;;;;;;5.75;2.78;;;17.20;99.90;;;;;;5092516;28;20402;-84
2022/04/23 09:06:42;;;;;;;4.97;2.20;;;17.20;99.90;;;;;;5091478;28;20740;-85
2022/04/23 09:09:17;;;;;;;3.83;2.10;;;17.20;99.90;;;;;;5090133;28;20368;-84
2022/04/23 09:12:06;;;;;;;4.30;2.00;;;17.20;99.90;;;;;;5090044;28;20458;-85
2022/04/23 09:14:34;;;;;;;4.97;2.15;;;17.20;99.90;;;;;;5089795;28;20411;-84
2022/04/23 09:23:39;;;;;;;5.60;2.25;;;17.00;99.90;;;;;;5090273;28;20480;-86
2022/04/23 09:25:47;;;;;;;5.13;2.50;;;16.80;99.90;;;;;;5090279;28;20407;-86
2022/04/23 09:28:17;;;;;;;5.22;2.40;;;16.60;99.90;;;;;;5089534;28;20376;-84
2022/04/23 09:30:51;;;;;;;6.20;2.50;;;16.60;99.90;;;;;;5089622;28;20471;-90
2022/04/23 09:33:23;;;;;;;4.97;2.30;;;16.50;99.90;;;;;;5089528;28;20974;-85
2022/04/23 09:36:03;;;;;;;6.05;2.50;;;16.50;99.90;;;;;;5089747;28;20411;-85
2022/04/23 09:38:31;;;;;;;6.43;2.53;;;16.50;99.90;;;;;;5089529;28;20396;-83
2022/04/23 09:41:15;;;;;;;5.15;2.42;;;16.40;99.90;;;;;;5089531;28;20384;-85
2022/04/23 09:43:43;;;;;;;5.95;2.30;;;16.30;99.90;;;;;;5089559;28;20356;-86
2022/04/23 09:46:11;;;;;;;4.65;2.35;;;16.30;99.90;;;;;;5089285;28;20779;-85
2022/04/23 09:48:40;;;;;;;6.47;3.00;;;16.20;99.90;;;;;;5089471;28;20371;-84
2022/04/23 09:51:21;;;;;;;9.15;4.50;;;16.10;99.90;;;;;;5089060;28;20388;-84
2022/04/23 09:53:50;;;;;;;9.25;3.30;;;16.00;99.90;;;;;;5089482;28;20784;-85
2022/04/23 09:56:19;;;;;;;7.30;3.58;;;15.90;99.90;;;;;;5089486;28;20753;-85
2022/04/23 09:58:47;;;;;;;7.03;3.20;;;15.90;99.90;;;;;;5088995;28;20371;-83
2022/04/23 10:01:14;;;;;;;7.43;3.20;;;15.80;99.90;;;;;;5089357;28;20740;-84
2022/04/23 10:03:46;;;;;;;7.30;2.90;;;15.80;99.90;;;;;;5089119;28;20871;-83
2022/04/23 10:06:14;;;;;;;6.53;2.60;;;15.70;99.90;;;;;;5089326;28;20920;-83
2022/04/23 10:08:45;;;;;;;6.32;2.50;;;15.70;99.90;;;;;;5089238;28;20445;-84
2022/04/23 10:11:30;;;;;;;8.13;2.72;;;15.70;99.90;;;;;;5088900;28;20400;-84
2022/04/23 10:14:05;;;;;;;6.88;2.70;;;15.60;99.90;;;;;;5070781;28;20450;-83
2022/04/23 10:16:36;;;;;;;7.85;3.10;;;15.50;99.90;;;;;;5088854;28;20408;-84
2022/04/23 10:19:06;;;;;;;8.77;3.10;;;15.50;99.90;;;;;;5088971;28;20724;-85
2022/04/23 10:21:53;;;;;;;6.90;2.70;;;15.40;99.90;;;;;;5088840;28;20368;-85
2022/04/23 10:24:26;;;;;;;8.90;2.77;;;15.40;99.90;;;;;;5088914;28;20383;-83
2022/04/23 10:27:07;;;;;;;3.95;2.20;;;15.40;99.90;;;;;;5088955;28;20455;-84
2022/04/23 10:29:34;;;;;;;8.53;2.20;;;15.30;99.90;;;;;;5088812;28;20360;-85
2022/04/23 10:32:16;;;;;;;9.15;2.10;;;15.30;99.90;;;;;;5025825;28;20940;-84
2022/04/23 10:34:44;;;;;;;7.65;2.00;;;15.30;99.90;;;;;;5025927;28;20430;-85
2022/04/23 10:37:20;;;;;;;11.43;2.17;;;15.30;99.90;;;;;;5026217;28;20385;-85
2022/04/23 10:39:53;;;;;;;8.73;2.13;;;15.40;99.90;;;;;;5026283;28;20985;-84
2022/04/23 10:42:22;;;;;;;5.53;1.77;;;15.40;99.90;;;;;;5025944;28;20386;-83
2022/04/23 10:44:50;;;;;;;6.30;2.10;;;15.30;99.90;;;;;;5025954;28;20877;-85
2022/04/23 10:47:32;;;;;;;13.00;2.80;;;15.20;99.90;;;;;;5026031;28;20523;-83
2022/04/23 10:50:25;;;;;;;14.07;3.08;;;15.20;99.90;;;;;;5026104;28;20464;-84
2022/04/23 10:52:55;;;;;;;11.60;3.00;;;15.20;99.90;;;;;;5025939;28;20473;-85
2022/04/23 10:55:22;;;;;;;14.18;3.30;;;15.10;99.90;;;;;;5025925;28;20413;-84
2022/04/23 10:57:54;;;;;;;12.15;3.28;;;15.10;99.90;;;;;;5025880;28;20385;-84
2022/04/23 11:00:23;;;;;;;10.15;3.40;;;15.10;99.90;;;;;;5025795;28;20464;-83
2022/04/23 11:02:57;;;;;;;11.30;3.65;;;15.20;99.90;;;;;;5025627;28;21193;-85
2022/04/23 11:14:25;;;;;;;10.13;4.15;;;15.20;99.90;;;;;;5088053;28;20961;-85
2022/04/23 11:16:55;;;;;;;8.80;4.20;;;15.20;99.90;;;;;;5087594;28;20421;-84
2022/04/23 11:19:25;;;;;;;11.57;4.05;;;15.10;99.90;;;;;;5087774;28;20891;-85
2022/04/23 11:21:52;;;;;;;9.18;3.72;;;15.10;99.90;;;;;;5087594;28;20463;-85
2022/04/23 11:24:19;;;;;;;9.55;4.25;;;15.10;99.90;;;;;;5087603;28;20393;-83
2022/04/23 11:26:49;;;;;;;11.10;4.90;;;15.10;99.90;;;;;;5087483;28;20795;-84
2022/04/23 11:29:17;;;;;;;14.38;5.15;;;15.00;99.90;;;;;;5087691;28;20427;-85
2022/04/23 11:31:59;;;;;;;8.68;4.68;;;15.00;99.90;;;;;;5087292;28;20376;-83
2022/04/23 11:34:29;;;;;;;8.52;4.80;;;15.10;99.90;;;;;;5087222;28;20404;-84
2022/04/23 11:36:56;;;;;;;11.00;4.20;;;15.00;99.90;;;;;;5087312;28;20381;-83
2022/04/23 11:39:32;;;;;;;5.78;4.38;;;15.00;99.90;;;;;;5087138;28;20400;-84
2022/04/23 11:41:59;;;;;;;7.22;3.50;;;15.00;99.90;;;;;;5087280;28;20449;-84
2022/04/23 11:44:46;;;;;;;4.93;2.80;;;14.90;99.90;;;;;;5087342;28;20403;-85
2022/04/23 11:47:17;;;;;;;7.28;3.00;;;14.90;99.90;;;;;;5087415;28;20383;-84
2022/04/23 11:49:44;;;;;;;5.88;2.40;;;14.80;99.90;;;;;;5087228;28;20811;-85
2022/04/23 11:52:12;;;;;;;8.75;2.40;;;14.80;99.90;;;;;;5087072;28;20457;-83
2022/04/23 11:54:41;;;;;;;5.93;1.90;;;14.80;99.90;;;;;;5087316;28;20408;-84
2022/04/23 11:57:19;;;;;;;6.55;2.00;;;14.80;99.90;;;;;;5069996;28;20383;-85
2022/04/23 11:59:49;;;;;;;7.38;1.90;;;14.80;99.90;;;;;;5087030;28;20377;-85
2022/04/23 12:02:21;;;;;;;7.72;1.90;;;14.80;99.90;;;;;;5086868;28;20404;-83
2022/04/23 12:04:50;;;;;;;7.55;2.00;;;14.90;99.90;;;;;;5086954;28;20376;-85
2022/04/23 12:07:18;;;;;;;10.88;2.17;;;14.90;99.90;;;;;;5087101;28;20375;-85
2022/04/23 12:09:56;;;;;;;9.80;2.03;;;14.90;99.90;;;;;;5086834;28;20389;-83
2022/04/23 12:12:25;;;;;;;7.15;1.90;;;14.90;99.90;;;;;;5086733;28;20456;-83
2022/04/23 12:14:56;;;;;;;6.80;1.85;;;14.90;99.90;;;;;;5067957;28;20427;-84
2022/04/23 12:17:31;;;;;;;5.78;2.22;;;15.00;99.90;;;;;;5086791;28;20459;-84
2022/04/23 12:20:00;;;;;;;4.88;2.20;;;15.00;99.90;;;;;;5086802;28;20356;-85
2022/04/23 12:22:28;;;;;;;5.70;2.40;;;15.00;99.90;;;;;;5086637;28;20383;-83
2022/04/23 12:25:18;;;;;;;7.37;3.20;;;14.90;99.90;;;;;;5086798;28;20468;-84
2022/04/23 12:42:11;;;;;;;12.32;5.47;;;14.50;99.90;;;;;;5086668;28;20443;-84
2022/04/23 12:44:43;;;;;;;12.97;5.43;;;14.50;99.90;;;;;;5086812;28;20372;-85
2022/04/23 12:47:27;;;;;;;11.38;6.22;;;14.60;99.90;;;;;;5086748;28;20431;-85
2022/04/23 12:50:00;;;;;;;12.73;6.30;;;14.60;99.90;;;;;;5086493;28;20408;-85
2022/04/23 12:52:46;;;;;;;14.07;6.90;;;14.70;99.90;;;;;;5086166;28;20392;-85
2022/04/23 12:55:35;;;;;;;14.48;7.68;;;14.80;99.90;;;;;;5068373;28;20424;-84
2022/04/23 12:58:08;;;;;;;15.07;7.73;;;14.80;99.90;;;;;;5086369;28;20420;-84
2022/04/23 13:00:41;;;;;;;15.70;7.87;;;14.80;99.90;;;;;;5067808;28;20377;-85
2022/04/23 13:03:37;;;;;;;14.93;8.80;;;14.80;99.90;;;;;;5086422;28;20375;-85
2022/04/23 13:08:54;;;;;;;11.55;7.30;;;14.90;99.90;;;;;;5085735;28;20384;-85
2022/04/23 13:08:55;;;;;;;8.77;5.82;;;14.90;99.90;;;;;;5086261;28;20875;-83
2022/04/23 13:11:26;;;;;;;10.15;5.28;;;14.90;99.90;;;;;;5086105;28;20459;-83
2022/04/23 13:13:56;;;;;;;8.90;5.07;;;14.90;99.90;;;;;;5068169;28;20463;-84
2022/04/23 13:16:31;;;;;;;9.57;4.68;;;14.90;99.90;;;;;;5068209;28;20388;-83
2022/04/23 13:19:03;;;;;;;9.03;4.13;;;14.90;99.90;;;;;;5086982;28;20423;-85
2022/04/23 13:21:32;;;;;;;7.70;4.70;;;14.90;99.90;;;;;;5085860;28;20910;-84
2022/04/23 13:24:01;;;;;;;9.82;5.38;;;14.80;99.90;;;;;;5086238;28;20494;-85
2022/04/23 13:26:29;;;;;;;12.25;5.13;;;14.80;99.90;;;;;;5086241;28;20430;-83
2022/04/23 13:28:57;;;;;;;7.82;4.63;;;14.70;99.90;;;;;;5086192;28;20376;-86
2022/04/23 13:31:24;;;;;;;8.65;4.22;;;14.70;99.90;;;;;;5085930;28;20468;-85
2022/04/23 13:33:51;;;;;;;8.88;3.70;;;14.80;99.90;;;;;;5086064;28;20428;-86
2022/04/23 13:36:18;;;;;;;8.13;4.10;;;14.80;99.90;;;;;;5089783;28;20904;-84